sensor_id;sensor_type;location;lat;lon;timestamp;pressure;altitude;pressure_sealevel;temperature;humidity
12213;BME280;6169;44.158;22.788;2023-03-20T00:03:47;101419.38;;;8.03;47.65
12213;BME280;6169;44.158;22.788;2023-03-20T00:08:51;101361.50;;;7.56;47.88
12213;BME280;6169;44.158;22.788;2023-03-20T00:13:55;101406.69;;;7.62;48.33
12213;BME280;6169;44.158;22.788;2023-03-20T00:18:59;101407.75;;;7.33;48.77
12213;BME280;6169;44.158;22.788;2023-03-20T00:24:01;101405.25;;;7.31;48.50
12213;BME280;6169;44.158;22.788;2023-03-20T00:29:04;101394.88;;;7.35;48.40
12213;BME280;6169;44.158;22.788;2023-03-20T00:34:12;101389.47;;;7.07;49.56
12213;BME280;6169;44.158;22.788;2023-03-20T00:39:14;101389.19;;;6.95;49.38
12213;BME280;6169;44.158;22.788;2023-03-20T00:44:21;101388.94;;;7.18;48.90
12213;BME280;6169;44.158;22.788;2023-03-20T00:49:28;101385.97;;;7.41;48.41
12213;BME280;6169;44.158;22.788;2023-03-20T00:54:32;101388.47;;;7.43;47.63
12213;BME280;6169;44.158;22.788;2023-03-20T00:59:36;101384.16;;;7.48;48.94
12213;BME280;6169;44.158;22.788;2023-03-20T01:04:42;101377.22;;;7.39;49.23
12213;BME280;6169;44.158;22.788;2023-03-20T01:09:44;101370.97;;;7.39;48.71
12213;BME280;6169;44.158;22.788;2023-03-20T01:14:49;101364.69;;;7.31;49.45
12213;BME280;6169;44.158;22.788;2023-03-20T01:19:54;101299.56;;;6.70;50.38
12213;BME280;6169;44.158;22.788;2023-03-20T01:24:56;101361.72;;;7.20;50.70
12213;BME280;6169;44.158;22.788;2023-03-20T01:29:58;101369.53;;;7.43;49.90
12213;BME280;6169;44.158;22.788;2023-03-20T01:35:02;101364.47;;;6.98;50.78
12213;BME280;6169;44.158;22.788;2023-03-20T01:40:15;101356.16;;;7.28;50.36
12213;BME280;6169;44.158;22.788;2023-03-20T01:45:21;101337.66;;;6.97;49.89
12213;BME280;6169;44.158;22.788;2023-03-20T01:50:28;101354.16;;;7.50;48.79
12213;BME280;6169;44.158;22.788;2023-03-20T01:55:32;101359.25;;;7.25;49.47
12213;BME280;6169;44.158;22.788;2023-03-20T02:00:35;101361.16;;;7.31;48.88
12213;BME280;6169;44.158;22.788;2023-03-20T02:05:39;101364.88;;;7.30;49.67
12213;BME280;6169;44.158;22.788;2023-03-20T02:10:43;101369.53;;;7.08;48.58
12213;BME280;6169;44.158;22.788;2023-03-20T02:15:58;101362.50;;;7.14;48.43
12213;BME280;6169;44.158;22.788;2023-03-20T02:26:53;101365.41;;;7.12;49.02
12213;BME280;6169;44.158;22.788;2023-03-20T02:37:51;101316.28;;;6.80;47.94
12213;BME280;6169;44.158;22.788;2023-03-20T02:43:03;101366.47;;;6.89;49.54
12213;BME280;6169;44.158;22.788;2023-03-20T02:48:15;101379.59;;;6.93;48.19
12213;BME280;6169;44.158;22.788;2023-03-20T02:53:31;101396.06;;;6.98;49.39
12213;BME280;6169;44.158;22.788;2023-03-20T02:58:40;101403.38;;;6.82;48.88
12213;BME280;6169;44.158;22.788;2023-03-20T03:03:47;101387.47;;;6.66;50.44
12213;BME280;6169;44.158;22.788;2023-03-20T03:08:57;101373.94;;;6.87;50.76
12213;BME280;6169;44.158;22.788;2023-03-20T03:14:03;101381.06;;;6.74;50.29
12213;BME280;6169;44.158;22.788;2023-03-20T03:19:07;101367.78;;;6.72;50.24
12213;BME280;6169;44.158;22.788;2023-03-20T03:24:26;101365.06;;;6.72;50.30
12213;BME280;6169;44.158;22.788;2023-03-20T03:29:32;101359.41;;;6.67;50.37
12213;BME280;6169;44.158;22.788;2023-03-20T03:34:35;101349.88;;;6.71;50.59
12213;BME280;6169;44.158;22.788;2023-03-20T03:39:42;101353.72;;;6.83;50.90
12213;BME280;6169;44.158;22.788;2023-03-20T03:44:52;101340.66;;;7.15;49.54
12213;BME280;6169;44.158;22.788;2023-03-20T03:49:59;101349.91;;;6.99;49.97
12213;BME280;6169;44.158;22.788;2023-03-20T03:55:07;101348.38;;;6.90;50.84
12213;BME280;6169;44.158;22.788;2023-03-20T04:00:13;101350.78;;;6.78;51.22
12213;BME280;6169;44.158;22.788;2023-03-20T04:05:19;101354.78;;;6.39;51.82
12213;BME280;6169;44.158;22.788;2023-03-20T04:10:23;101346.88;;;7.09;49.74
12213;BME280;6169;44.158;22.788;2023-03-20T04:15:25;101350.13;;;6.98;49.54
12213;BME280;6169;44.158;22.788;2023-03-20T04:20:28;101352.44;;;6.79;48.90
12213;BME280;6169;44.158;22.788;2023-03-20T04:25:31;101331.88;;;6.85;48.87
12213;BME280;6169;44.158;22.788;2023-03-20T04:30:34;101332.41;;;6.95;48.73
12213;BME280;6169;44.158;22.788;2023-03-20T04:35:36;101345.53;;;6.98;47.72
12213;BME280;6169;44.158;22.788;2023-03-20T04:40:39;101352.44;;;6.79;48.06
12213;BME280;6169;44.158;22.788;2023-03-20T04:45:42;101357.44;;;7.04;47.19
12213;BME280;6169;44.158;22.788;2023-03-20T04:50:44;101364.59;;;7.18;46.99
12213;BME280;6169;44.158;22.788;2023-03-20T04:55:49;101358.75;;;7.49;47.04
12213;BME280;6169;44.158;22.788;2023-03-20T05:00:51;101354.81;;;7.17;48.27
12213;BME280;6169;44.158;22.788;2023-03-20T05:05:54;101359.59;;;7.15;48.52
12213;BME280;6169;44.158;22.788;2023-03-20T05:10:57;101366.25;;;7.47;47.71
12213;BME280;6169;44.158;22.788;2023-03-20T05:15:59;101371.69;;;7.54;46.93
12213;BME280;6169;44.158;22.788;2023-03-20T05:21:02;101376.28;;;7.60;47.84
12213;BME280;6169;44.158;22.788;2023-03-20T05:26:06;101367.19;;;7.74;46.99
12213;BME280;6169;44.158;22.788;2023-03-20T05:31:08;101355.25;;;8.04;46.48
12213;BME280;6169;44.158;22.788;2023-03-20T05:36:10;101370.66;;;8.16;46.95
12213;BME280;6169;44.158;22.788;2023-03-20T05:41:14;101376.78;;;7.84;48.13
12213;BME280;6169;44.158;22.788;2023-03-20T05:46:16;101374.31;;;7.89;48.71
12213;BME280;6169;44.158;22.788;2023-03-20T05:51:19;101383.97;;;7.98;48.59
12213;BME280;6169;44.158;22.788;2023-03-20T05:56:22;101377.97;;;8.16;48.19
12213;BME280;6169;44.158;22.788;2023-03-20T06:01:24;101378.91;;;8.56;48.09
12213;BME280;6169;44.158;22.788;2023-03-20T06:06:26;101343.13;;;8.06;50.11
12213;BME280;6169;44.158;22.788;2023-03-20T06:11:30;101377.78;;;8.24;49.14
12213;BME280;6169;44.158;22.788;2023-03-20T06:16:33;101372.25;;;8.72;49.61
12213;BME280;6169;44.158;22.788;2023-03-20T06:21:35;101387.25;;;9.15;48.09
12213;BME280;6169;44.158;22.788;2023-03-20T06:26:39;101379.50;;;9.05;49.03
12213;BME280;6169;44.158;22.788;2023-03-20T06:31:41;101381.00;;;8.94;49.11
12213;BME280;6169;44.158;22.788;2023-03-20T06:36:43;101379.97;;;8.68;50.47
12213;BME280;6169;44.158;22.788;2023-03-20T06:41:47;101384.44;;;9.68;49.20
12213;BME280;6169;44.158;22.788;2023-03-20T06:46:50;101388.31;;;9.13;51.57
12213;BME280;6169;44.158;22.788;2023-03-20T06:51:52;101384.59;;;10.24;49.19
12213;BME280;6169;44.158;22.788;2023-03-20T06:56:56;101390.19;;;9.91;47.42
12213;BME280;6169;44.158;22.788;2023-03-20T07:01:58;101396.88;;;10.65;46.97
12213;BME280;6169;44.158;22.788;2023-03-20T07:07:00;101387.47;;;10.61;46.94
12213;BME280;6169;44.158;22.788;2023-03-20T07:12:04;101382.09;;;10.86;46.37
12213;BME280;6169;44.158;22.788;2023-03-20T07:17:07;101396.53;;;10.55;47.13
12213;BME280;6169;44.158;22.788;2023-03-20T07:22:18;101399.78;;;10.96;45.63
12213;BME280;6169;44.158;22.788;2023-03-20T07:27:24;101397.63;;;11.48;45.25
12213;BME280;6169;44.158;22.788;2023-03-20T07:32:26;101395.78;;;11.23;46.65
12213;BME280;6169;44.158;22.788;2023-03-20T07:37:28;101387.34;;;11.68;44.69
12213;BME280;6169;44.158;22.788;2023-03-20T07:42:32;101404.03;;;11.78;44.32
12213;BME280;6169;44.158;22.788;2023-03-20T07:47:34;101390.97;;;11.62;43.80
12213;BME280;6169;44.158;22.788;2023-03-20T07:52:36;101393.72;;;11.80;44.85
12213;BME280;6169;44.158;22.788;2023-03-20T07:57:40;101390.09;;;12.47;42.90
12213;BME280;6169;44.158;22.788;2023-03-20T08:02:42;101394.25;;;12.19;44.91
12213;BME280;6169;44.158;22.788;2023-03-20T08:07:44;101400.88;;;12.96;41.73
12213;BME280;6169;44.158;22.788;2023-03-20T08:12:48;101394.00;;;12.93;40.32
12213;BME280;6169;44.158;22.788;2023-03-20T08:17:50;101389.63;;;12.92;41.04
12213;BME280;6169;44.158;22.788;2023-03-20T08:22:52;101385.94;;;13.10;41.89
12213;BME280;6169;44.158;22.788;2023-03-20T08:27:56;101393.09;;;12.57;42.44
12213;BME280;6169;44.158;22.788;2023-03-20T08:32:58;101378.69;;;12.92;40.99
12213;BME280;6169;44.158;22.788;2023-03-20T08:38:00;101378.59;;;13.34;40.53
12213;BME280;6169;44.158;22.788;2023-03-20T08:43:04;101367.13;;;13.60;38.55
12213;BME280;6169;44.158;22.788;2023-03-20T08:48:06;101363.75;;;13.18;40.49
12213;BME280;6169;44.158;22.788;2023-03-20T08:53:09;101362.69;;;14.23;38.42
12213;BME280;6169;44.158;22.788;2023-03-20T08:58:12;101359.91;;;13.95;38.30
12213;BME280;6169;44.158;22.788;2023-03-20T09:03:16;101355.59;;;15.07;37.80
12213;BME280;6169;44.158;22.788;2023-03-20T09:08:18;101349.09;;;15.13;37.66
12213;BME280;6169;44.158;22.788;2023-03-20T09:13:22;101349.41;;;15.72;36.45
12213;BME280;6169;44.158;22.788;2023-03-20T09:18:25;101336.25;;;16.56;35.68
12213;BME280;6169;44.158;22.788;2023-03-20T09:23:27;101338.22;;;15.57;37.10
12213;BME280;6169;44.158;22.788;2023-03-20T09:28:30;101333.16;;;15.93;36.64
12213;BME280;6169;44.158;22.788;2023-03-20T09:33:33;101332.16;;;16.26;36.26
12213;BME280;6169;44.158;22.788;2023-03-20T09:38:37;101325.00;;;16.89;35.74
12213;BME280;6169;44.158;22.788;2023-03-20T09:43:53;101319.81;;;15.35;38.07
12213;BME280;6169;44.158;22.788;2023-03-20T09:49:03;101305.84;;;15.54;37.29
12213;BME280;6169;44.158;22.788;2023-03-20T09:54:14;101300.66;;;16.66;36.47
12213;BME280;6169;44.158;22.788;2023-03-20T09:59:20;101289.81;;;16.86;35.53
12213;BME280;6169;44.158;22.788;2023-03-20T10:04:25;101279.72;;;17.50;35.18
12213;BME280;6169;44.158;22.788;2023-03-20T10:09:29;101266.88;;;17.91;34.30
12213;BME280;6169;44.158;22.788;2023-03-20T10:14:39;101256.47;;;18.65;33.88
12213;BME280;6169;44.158;22.788;2023-03-20T10:19:51;101198.72;;;18.03;34.48
12213;BME280;6169;44.158;22.788;2023-03-20T10:24:58;101252.09;;;18.38;33.88
12213;BME280;6169;44.158;22.788;2023-03-20T10:30:18;101240.78;;;18.70;33.35
12213;BME280;6169;44.158;22.788;2023-03-20T10:35:22;101241.09;;;18.48;33.79
12213;BME280;6169;44.158;22.788;2023-03-20T10:40:29;101237.25;;;18.03;35.20
12213;BME280;6169;44.158;22.788;2023-03-20T10:45:39;101228.41;;;18.17;34.45
12213;BME280;6169;44.158;22.788;2023-03-20T10:50:45;101228.44;;;18.37;33.85
12213;BME280;6169;44.158;22.788;2023-03-20T10:55:49;101185.91;;;18.94;32.43
12213;BME280;6169;44.158;22.788;2023-03-20T11:00:54;101217.84;;;18.90;33.36
12213;BME280;6169;44.158;22.788;2023-03-20T11:05:59;101205.81;;;18.50;34.57
12213;BME280;6169;44.158;22.788;2023-03-20T11:11:03;101201.94;;;18.77;34.39
12213;BME280;6169;44.158;22.788;2023-03-20T11:16:17;101191.53;;;17.92;35.75
12213;BME280;6169;44.158;22.788;2023-03-20T11:21:22;101182.84;;;19.01;34.24
12213;BME280;6169;44.158;22.788;2023-03-20T11:26:34;101173.41;;;19.17;34.29
12213;BME280;6169;44.158;22.788;2023-03-20T11:31:39;101155.31;;;19.85;33.89
12213;BME280;6169;44.158;22.788;2023-03-20T11:36:47;101151.91;;;19.98;33.38
12213;BME280;6169;44.158;22.788;2023-03-20T11:41:56;101138.91;;;20.57;32.58
12213;BME280;6169;44.158;22.788;2023-03-20T11:47:02;101140.31;;;19.96;33.22
12213;BME280;6169;44.158;22.788;2023-03-20T11:52:12;101134.78;;;21.22;32.10
12213;BME280;6169;44.158;22.788;2023-03-20T11:57:31;101125.56;;;20.88;32.22
12213;BME280;6169;44.158;22.788;2023-03-20T12:02:35;101112.16;;;20.77;32.42
12213;BME280;6169;44.158;22.788;2023-03-20T12:07:40;101109.22;;;20.92;31.73
12213;BME280;6169;44.158;22.788;2023-03-20T12:12:48;101111.69;;;21.31;31.31
12213;BME280;6169;44.158;22.788;2023-03-20T12:17:55;101096.34;;;21.58;30.91
12213;BME280;6169;44.158;22.788;2023-03-20T12:23:19;101086.63;;;21.60;30.44
12213;BME280;6169;44.158;22.788;2023-03-20T12:28:25;101078.50;;;21.12;31.28
12213;BME280;6169;44.158;22.788;2023-03-20T12:33:41;101074.44;;;22.08;29.81
12213;BME280;6169;44.158;22.788;2023-03-20T12:38:45;101073.56;;;22.40;29.78
12213;BME280;6169;44.158;22.788;2023-03-20T12:44:05;101067.06;;;22.03;29.49
12213;BME280;6169;44.158;22.788;2023-03-20T12:49:23;101059.66;;;21.99;29.82
12213;BME280;6169;44.158;22.788;2023-03-20T12:54:49;101047.88;;;21.93;29.35
12213;BME280;6169;44.158;22.788;2023-03-20T13:00:09;101033.69;;;21.67;29.73
12213;BME280;6169;44.158;22.788;2023-03-20T13:05:26;101028.28;;;21.76;30.05
12213;BME280;6169;44.158;22.788;2023-03-20T13:10:32;101033.56;;;22.19;29.84
12213;BME280;6169;44.158;22.788;2023-03-20T13:15:50;101017.00;;;22.55;29.04
12213;BME280;6169;44.158;22.788;2023-03-20T13:21:03;101006.53;;;21.83;30.22
12213;BME280;6169;44.158;22.788;2023-03-20T13:26:20;101004.59;;;22.11;30.14
12213;BME280;6169;44.158;22.788;2023-03-20T13:31:35;100999.59;;;21.99;30.09
12213;BME280;6169;44.158;22.788;2023-03-20T13:36:53;100994.25;;;22.03;30.03
12213;BME280;6169;44.158;22.788;2023-03-20T13:41:59;100989.44;;;21.95;30.26
12213;BME280;6169;44.158;22.788;2023-03-20T13:47:05;100977.66;;;22.17;29.83
12213;BME280;6169;44.158;22.788;2023-03-20T13:52:14;100972.22;;;21.70;29.97
12213;BME280;6169;44.158;22.788;2023-03-20T13:57:40;100964.19;;;21.69;30.09
12213;BME280;6169;44.158;22.788;2023-03-20T14:03:01;100958.38;;;21.98;29.08
12213;BME280;6169;44.158;22.788;2023-03-20T14:08:34;100949.75;;;21.99;28.33
12213;BME280;6169;44.158;22.788;2023-03-20T14:13:38;100945.47;;;21.79;28.43
12213;BME280;6169;44.158;22.788;2023-03-20T14:18:42;100936.53;;;21.96;28.77
12213;BME280;6169;44.158;22.788;2023-03-20T14:23:49;100932.63;;;22.11;27.53
12213;BME280;6169;44.158;22.788;2023-03-20T14:28:55;100923.44;;;22.16;27.21
12213;BME280;6169;44.158;22.788;2023-03-20T14:34:06;100916.75;;;22.17;26.78
12213;BME280;6169;44.158;22.788;2023-03-20T14:39:20;100914.41;;;21.69;27.16
12213;BME280;6169;44.158;22.788;2023-03-20T14:44:32;100909.69;;;21.55;27.13
12213;BME280;6169;44.158;22.788;2023-03-20T14:49:49;100912.56;;;21.64;26.47
12213;BME280;6169;44.158;22.788;2023-03-20T14:54:55;100912.41;;;21.28;27.21
12213;BME280;6169;44.158;22.788;2023-03-20T14:59:57;100903.94;;;21.52;27.02
12213;BME280;6169;44.158;22.788;2023-03-20T15:05:00;100910.88;;;21.49;27.15
12213;BME280;6169;44.158;22.788;2023-03-20T15:10:05;100914.38;;;21.55;26.71
12213;BME280;6169;44.158;22.788;2023-03-20T15:15:23;100906.78;;;21.33;26.63
12213;BME280;6169;44.158;22.788;2023-03-20T15:20:26;100902.06;;;21.47;26.46
12213;BME280;6169;44.158;22.788;2023-03-20T15:25:32;100895.34;;;21.53;26.95
12213;BME280;6169;44.158;22.788;2023-03-20T15:30:37;100904.00;;;21.33;28.29
12213;BME280;6169;44.158;22.788;2023-03-20T15:35:39;100908.94;;;21.36;28.67
12213;BME280;6169;44.158;22.788;2023-03-20T15:40:44;100901.72;;;21.21;29.95
12213;BME280;6169;44.158;22.788;2023-03-20T15:45:46;100897.28;;;20.74;32.00
12213;BME280;6169;44.158;22.788;2023-03-20T15:50:52;100883.22;;;20.70;32.08
12213;BME280;6169;44.158;22.788;2023-03-20T15:56:00;100907.56;;;20.68;32.68
12213;BME280;6169;44.158;22.788;2023-03-20T16:01:05;100902.94;;;20.44;33.10
12213;BME280;6169;44.158;22.788;2023-03-20T16:06:10;100907.78;;;20.34;32.60
12213;BME280;6169;44.158;22.788;2023-03-20T16:11:17;100905.25;;;20.18;32.75
12213;BME280;6169;44.158;22.788;2023-03-20T16:16:22;100909.44;;;19.68;33.09
12213;BME280;6169;44.158;22.788;2023-03-20T16:21:27;100905.25;;;19.46;33.38
12213;BME280;6169;44.158;22.788;2023-03-20T16:26:36;100913.75;;;19.21;33.92
12213;BME280;6169;44.158;22.788;2023-03-20T16:31:43;100914.34;;;18.88;34.04
12213;BME280;6169;44.158;22.788;2023-03-20T16:36:52;100915.56;;;18.67;33.96
12213;BME280;6169;44.158;22.788;2023-03-20T16:42:07;100916.19;;;18.93;33.44
12213;BME280;6169;44.158;22.788;2023-03-20T16:47:20;100915.25;;;18.74;33.79
12213;BME280;6169;44.158;22.788;2023-03-20T16:52:26;100927.84;;;18.40;35.08
12213;BME280;6169;44.158;22.788;2023-03-20T16:57:35;100936.38;;;18.39;35.24
12213;BME280;6169;44.158;22.788;2023-03-20T17:02:39;100936.59;;;17.98;36.21
12213;BME280;6169;44.158;22.788;2023-03-20T17:07:41;100941.59;;;17.60;36.94
12213;BME280;6169;44.158;22.788;2023-03-20T17:12:47;100946.03;;;17.61;36.77
12213;BME280;6169;44.158;22.788;2023-03-20T17:17:50;100945.06;;;18.07;36.03
12213;BME280;6169;44.158;22.788;2023-03-20T17:22:53;100952.88;;;17.64;36.65
12213;BME280;6169;44.158;22.788;2023-03-20T17:27:56;100962.78;;;16.88;38.66
12213;BME280;6169;44.158;22.788;2023-03-20T17:32:59;100963.03;;;16.76;39.15
12213;BME280;6169;44.158;22.788;2023-03-20T17:38:01;100956.41;;;16.62;39.54
12213;BME280;6169;44.158;22.788;2023-03-20T17:43:09;100963.59;;;16.78;39.29
12213;BME280;6169;44.158;22.788;2023-03-20T17:48:13;100965.72;;;16.51;39.97
12213;BME280;6169;44.158;22.788;2023-03-20T17:53:18;100948.97;;;16.42;39.76
12213;BME280;6169;44.158;22.788;2023-03-20T17:58:22;100956.59;;;16.35;39.78
12213;BME280;6169;44.158;22.788;2023-03-20T18:03:25;100960.63;;;16.12;40.20
12213;BME280;6169;44.158;22.788;2023-03-20T18:08:28;100963.53;;;15.85;40.88
12213;BME280;6169;44.158;22.788;2023-03-20T18:13:34;100969.44;;;15.66;41.09
12213;BME280;6169;44.158;22.788;2023-03-20T18:18:37;100966.09;;;15.27;41.24
12213;BME280;6169;44.158;22.788;2023-03-20T18:23:40;100966.72;;;15.34;40.98
12213;BME280;6169;44.158;22.788;2023-03-20T18:28:44;100966.47;;;15.41;40.53
12213;BME280;6169;44.158;22.788;2023-03-20T18:33:48;100965.19;;;15.48;39.98
12213;BME280;6169;44.158;22.788;2023-03-20T18:38:52;100962.22;;;15.18;40.71
12213;BME280;6169;44.158;22.788;2023-03-20T18:43:57;100959.75;;;15.16;40.48
12213;BME280;6169;44.158;22.788;2023-03-20T18:49:00;100963.41;;;15.64;39.24
12213;BME280;6169;44.158;22.788;2023-03-20T18:54:03;100972.28;;;15.81;38.36
12213;BME280;6169;44.158;22.788;2023-03-20T18:59:10;100967.34;;;15.84;38.55
12213;BME280;6169;44.158;22.788;2023-03-20T19:04:15;100969.59;;;15.97;38.17
12213;BME280;6169;44.158;22.788;2023-03-20T19:09:18;100973.94;;;16.45;37.15
12213;BME280;6169;44.158;22.788;2023-03-20T19:14:23;100973.59;;;16.26;37.47
12213;BME280;6169;44.158;22.788;2023-03-20T19:19:26;100963.97;;;16.24;37.81
12213;BME280;6169;44.158;22.788;2023-03-20T19:24:30;100964.16;;;16.02;38.20
12213;BME280;6169;44.158;22.788;2023-03-20T19:29:35;100959.41;;;15.87;38.55
12213;BME280;6169;44.158;22.788;2023-03-20T19:34:39;100968.41;;;15.77;39.09
12213;BME280;6169;44.158;22.788;2023-03-20T19:39:42;100964.03;;;15.07;40.51
12213;BME280;6169;44.158;22.788;2023-03-20T19:44:46;100959.13;;;15.09;40.60
12213;BME280;6169;44.158;22.788;2023-03-20T19:49:49;100956.03;;;15.00;41.11
12213;BME280;6169;44.158;22.788;2023-03-20T19:54:51;100960.34;;;14.91;41.40
12213;BME280;6169;44.158;22.788;2023-03-20T19:59:55;100962.97;;;14.81;41.21
12213;BME280;6169;44.158;22.788;2023-03-20T20:04:58;100966.03;;;15.17;40.26
12213;BME280;6169;44.158;22.788;2023-03-20T20:10:00;100966.47;;;15.41;39.45
12213;BME280;6169;44.158;22.788;2023-03-20T20:15:06;100973.28;;;15.01;40.86
12213;BME280;6169;44.158;22.788;2023-03-20T20:20:09;100966.69;;;14.97;40.39
12213;BME280;6169;44.158;22.788;2023-03-20T20:25:13;100967.81;;;14.74;41.60
12213;BME280;6169;44.158;22.788;2023-03-20T20:30:18;100971.41;;;14.74;41.72
12213;BME280;6169;44.158;22.788;2023-03-20T20:35:21;100974.53;;;14.39;42.08
12213;BME280;6169;44.158;22.788;2023-03-20T20:40:25;100984.28;;;14.30;42.26
12213;BME280;6169;44.158;22.788;2023-03-20T20:45:29;100997.34;;;14.06;43.23
12213;BME280;6169;44.158;22.788;2023-03-20T20:50:32;100991.44;;;13.92;43.46
12213;BME280;6169;44.158;22.788;2023-03-20T20:55:36;100996.22;;;14.01;42.14
12213;BME280;6169;44.158;22.788;2023-03-20T21:00:39;100986.06;;;14.19;42.35
12213;BME280;6169;44.158;22.788;2023-03-20T21:05:42;100985.09;;;14.30;41.24
12213;BME280;6169;44.158;22.788;2023-03-20T21:10:45;100985.69;;;14.10;41.99
12213;BME280;6169;44.158;22.788;2023-03-20T21:15:57;100991.03;;;13.83;42.83
12213;BME280;6169;44.158;22.788;2023-03-20T21:21:03;100986.59;;;13.77;42.51
12213;BME280;6169;44.158;22.788;2023-03-20T21:26:06;100984.66;;;13.60;43.22
12213;BME280;6169;44.158;22.788;2023-03-20T21:31:10;100987.31;;;13.55;42.98
12213;BME280;6169;44.158;22.788;2023-03-20T21:36:21;100986.47;;;13.89;41.07
12213;BME280;6169;44.158;22.788;2023-03-20T21:41:24;100977.81;;;13.75;40.91
12213;BME280;6169;44.158;22.788;2023-03-20T21:46:27;100985.91;;;13.87;40.11
12213;BME280;6169;44.158;22.788;2023-03-20T21:51:30;100991.13;;;13.88;40.07
12213;BME280;6169;44.158;22.788;2023-03-20T21:56:32;100982.94;;;14.10;39.68
12213;BME280;6169;44.158;22.788;2023-03-20T22:01:36;100987.19;;;14.45;37.61
12213;BME280;6169;44.158;22.788;2023-03-20T22:06:38;100985.16;;;14.35;38.87
12213;BME280;6169;44.158;22.788;2023-03-20T22:11:40;100988.66;;;14.09;39.29
12213;BME280;6169;44.158;22.788;2023-03-20T22:16:44;100985.09;;;14.08;38.73
12213;BME280;6169;44.158;22.788;2023-03-20T22:21:46;100983.19;;;14.09;39.28
12213;BME280;6169;44.158;22.788;2023-03-20T22:26:48;100978.28;;;14.33;38.72
12213;BME280;6169;44.158;22.788;2023-03-20T22:31:52;100974.22;;;14.13;39.71
12213;BME280;6169;44.158;22.788;2023-03-20T22:36:54;100969.84;;;13.90;39.93
12213;BME280;6169;44.158;22.788;2023-03-20T22:41:56;100965.50;;;14.16;39.50
12213;BME280;6169;44.158;22.788;2023-03-20T22:47:00;100970.50;;;13.80;41.37
12213;BME280;6169;44.158;22.788;2023-03-20T22:52:02;100967.19;;;13.95;40.82
12213;BME280;6169;44.158;22.788;2023-03-20T22:57:05;100964.88;;;13.70;41.14
12213;BME280;6169;44.158;22.788;2023-03-20T23:02:08;100965.94;;;13.69;41.00
12213;BME280;6169;44.158;22.788;2023-03-20T23:07:11;100969.25;;;13.88;40.20
12213;BME280;6169;44.158;22.788;2023-03-20T23:12:13;100945.31;;;13.95;40.07
12213;BME280;6169;44.158;22.788;2023-03-20T23:17:17;100949.09;;;13.94;41.09
12213;BME280;6169;44.158;22.788;2023-03-20T23:22:19;100952.63;;;13.73;41.86
12213;BME280;6169;44.158;22.788;2023-03-20T23:27:22;100956.16;;;13.90;40.93
12213;BME280;6169;44.158;22.788;2023-03-20T23:32:25;100950.50;;;14.19;40.36
12213;BME280;6169;44.158;22.788;2023-03-20T23:37:27;100958.63;;;14.36;40.40
12213;BME280;6169;44.158;22.788;2023-03-20T23:42:30;100820.16;;;13.53;40.37
12213;BME280;6169;44.158;22.788;2023-03-20T23:47:34;100946.16;;;14.23;40.93
12213;BME280;6169;44.158;22.788;2023-03-20T23:52:36;100949.22;;;14.48;40.43
12213;BME280;6169;44.158;22.788;2023-03-20T23:57:38;100933.13;;;14.52;40.65
